sensor_id;sensor_type;location;lat;lon;timestamp;noise_LAeq;noise_LA_min;noise_LA_max;noise_LA01;noise_LA95
64036;Laerm;50280;49.864;8.638;2023-01-30T00:01:06;43.21;38.62;52.31;;
64036;Laerm;50280;49.864;8.638;2023-01-30T00:03:44;42.86;37.48;60.33;;
64036;Laerm;50280;49.864;8.638;2023-01-30T00:06:18;43.76;37.95;64.87;;
64036;Laerm;50280;49.864;8.638;2023-01-30T00:08:51;42.72;38.36;56.29;;
64036;Laerm;50280;49.864;8.638;2023-01-30T00:11:24;41.60;37.17;50.81;;
64036;Laerm;50280;49.864;8.638;2023-01-30T00:13:58;43.82;38.39;60.68;;
64036;Laerm;50280;49.864;8.638;2023-01-30T00:16:30;42.68;36.96;61.33;;
64036;Laerm;50280;49.864;8.638;2023-01-30T00:19:03;42.97;37.80;53.66;;
64036;Laerm;50280;49.864;8.638;2023-01-30T00:21:37;42.58;37.97;58.69;;
64036;Laerm;50280;49.864;8.638;2023-01-30T00:24:09;41.33;37.92;47.82;;
64036;Laerm;50280;49.864;8.638;2023-01-30T00:26:41;41.81;37.91;56.05;;
64036;Laerm;50280;49.864;8.638;2023-01-30T00:29:14;44.16;38.44;60.16;;
64036;Laerm;50280;49.864;8.638;2023-01-30T00:31:46;42.84;38.04;58.35;;
64036;Laerm;50280;49.864;8.638;2023-01-30T00:34:19;44.52;39.23;58.46;;
64036;Laerm;50280;49.864;8.638;2023-01-30T00:36:53;45.07;38.70;58.09;;
64036;Laerm;50280;49.864;8.638;2023-01-30T00:39:25;46.07;39.80;55.69;;
64036;Laerm;50280;49.864;8.638;2023-01-30T00:41:58;44.01;39.22;60.25;;
64036;Laerm;50280;49.864;8.638;2023-01-30T00:44:30;44.21;38.31;66.58;;
64036;Laerm;50280;49.864;8.638;2023-01-30T00:47:03;50.21;37.44;73.96;;
64036;Laerm;50280;49.864;8.638;2023-01-30T00:49:36;42.44;37.58;57.69;;
64036;Laerm;50280;49.864;8.638;2023-01-30T00:52:10;44.84;37.45;62.47;;
64036;Laerm;50280;49.864;8.638;2023-01-30T00:54:43;41.72;37.01;57.00;;
64036;Laerm;50280;49.864;8.638;2023-01-30T00:57:15;44.27;38.11;64.94;;
64036;Laerm;50280;49.864;8.638;2023-01-30T00:59:48;41.83;37.76;55.10;;
64036;Laerm;50280;49.864;8.638;2023-01-30T01:02:20;44.56;39.22;62.02;;
64036;Laerm;50280;49.864;8.638;2023-01-30T01:04:52;44.28;38.18;63.39;;
64036;Laerm;50280;49.864;8.638;2023-01-30T01:07:26;44.16;37.75;58.71;;
64036;Laerm;50280;49.864;8.638;2023-01-30T01:09:59;44.12;39.02;62.44;;
64036;Laerm;50280;49.864;8.638;2023-01-30T01:12:31;44.77;37.98;61.87;;
64036;Laerm;50280;49.864;8.638;2023-01-30T01:15:05;45.96;38.70;62.78;;
64036;Laerm;50280;49.864;8.638;2023-01-30T01:17:39;47.12;38.75;63.86;;
64036;Laerm;50280;49.864;8.638;2023-01-30T01:20:13;46.45;38.32;62.87;;
64036;Laerm;50280;49.864;8.638;2023-01-30T01:22:51;43.93;37.42;61.81;;
64036;Laerm;50280;49.864;8.638;2023-01-30T01:25:24;47.76;37.81;71.95;;
64036;Laerm;50280;49.864;8.638;2023-01-30T01:27:57;48.47;39.10;69.98;;
64036;Laerm;50280;49.864;8.638;2023-01-30T01:30:30;42.80;38.59;53.71;;
64036;Laerm;50280;49.864;8.638;2023-01-30T01:33:02;43.55;38.49;62.57;;
64036;Laerm;50280;49.864;8.638;2023-01-30T01:35:39;47.65;40.15;64.01;;
64036;Laerm;50280;49.864;8.638;2023-01-30T01:38:13;48.92;39.52;69.33;;
64036;Laerm;50280;49.864;8.638;2023-01-30T01:40:46;56.09;39.06;82.51;;
64036;Laerm;50280;49.864;8.638;2023-01-30T01:43:21;44.54;37.39;66.60;;
64036;Laerm;50280;49.864;8.638;2023-01-30T01:46:01;50.40;37.16;71.46;;
64036;Laerm;50280;49.864;8.638;2023-01-30T01:48:44;47.36;37.74;65.16;;
64036;Laerm;50280;49.864;8.638;2023-01-30T01:51:28;46.04;38.77;59.09;;
64036;Laerm;50280;49.864;8.638;2023-01-30T01:54:12;46.60;38.76;62.49;;
64036;Laerm;50280;49.864;8.638;2023-01-30T01:56:49;44.56;38.84;59.11;;
64036;Laerm;50280;49.864;8.638;2023-01-30T01:59:29;42.72;37.88;56.62;;
64036;Laerm;50280;49.864;8.638;2023-01-30T02:02:10;45.79;37.76;63.76;;
64036;Laerm;50280;49.864;8.638;2023-01-30T02:04:49;43.57;36.86;62.81;;
64036;Laerm;50280;49.864;8.638;2023-01-30T02:07:29;43.80;37.71;59.59;;
64036;Laerm;50280;49.864;8.638;2023-01-30T02:10:14;44.24;38.43;65.93;;
64036;Laerm;50280;49.864;8.638;2023-01-30T02:12:50;42.63;38.16;52.08;;
64036;Laerm;50280;49.864;8.638;2023-01-30T02:15:23;42.24;38.03;59.99;;
64036;Laerm;50280;49.864;8.638;2023-01-30T02:17:55;43.15;37.76;62.26;;
64036;Laerm;50280;49.864;8.638;2023-01-30T02:20:56;43.00;38.41;58.68;;
64036;Laerm;50280;49.864;8.638;2023-01-30T02:24:12;48.11;38.48;70.57;;
64036;Laerm;50280;49.864;8.638;2023-01-30T02:27:42;47.27;38.75;67.80;;
64036;Laerm;50280;49.864;8.638;2023-01-30T02:34:24;45.95;39.05;64.92;;
64036;Laerm;50280;49.864;8.638;2023-01-30T02:37:26;44.52;38.84;64.04;;
64036;Laerm;50280;49.864;8.638;2023-01-30T02:40:31;43.93;38.29;59.24;;
64036;Laerm;50280;49.864;8.638;2023-01-30T02:43:25;47.69;38.83;68.43;;
64036;Laerm;50280;49.864;8.638;2023-01-30T02:46:10;45.22;39.26;62.31;;
64036;Laerm;50280;49.864;8.638;2023-01-30T02:48:54;43.84;39.33;58.08;;
64036;Laerm;50280;49.864;8.638;2023-01-30T02:51:35;43.45;39.02;54.87;;
64036;Laerm;50280;49.864;8.638;2023-01-30T02:54:11;47.13;38.51;63.58;;
64036;Laerm;50280;49.864;8.638;2023-01-30T02:56:47;50.48;40.42;67.43;;
64036;Laerm;50280;49.864;8.638;2023-01-30T02:59:27;47.31;39.69;65.94;;
64036;Laerm;50280;49.864;8.638;2023-01-30T03:02:29;44.65;39.75;58.81;;
64036;Laerm;50280;49.864;8.638;2023-01-30T03:05:30;53.00;39.28;75.97;;
64036;Laerm;50280;49.864;8.638;2023-01-30T03:08:30;48.71;40.69;62.34;;
64036;Laerm;50280;49.864;8.638;2023-01-30T03:11:12;46.36;40.54;61.75;;
64036;Laerm;50280;49.864;8.638;2023-01-30T03:13:52;46.93;39.52;69.03;;
64036;Laerm;50280;49.864;8.638;2023-01-30T03:16:35;47.80;40.75;65.15;;
64036;Laerm;50280;49.864;8.638;2023-01-30T03:19:12;47.36;40.47;68.03;;
64036;Laerm;50280;49.864;8.638;2023-01-30T03:21:45;49.86;40.33;68.55;;
64036;Laerm;50280;49.864;8.638;2023-01-30T03:24:18;53.32;40.96;76.03;;
64036;Laerm;50280;49.864;8.638;2023-01-30T03:26:56;50.97;41.69;71.17;;
64036;Laerm;50280;49.864;8.638;2023-01-30T03:29:33;47.75;40.78;66.57;;
64036;Laerm;50280;49.864;8.638;2023-01-30T03:32:06;46.47;40.90;61.56;;
64036;Laerm;50280;49.864;8.638;2023-01-30T03:34:40;56.58;41.58;83.95;;
64036;Laerm;50280;49.864;8.638;2023-01-30T03:37:12;52.05;42.18;70.59;;
64036;Laerm;50280;49.864;8.638;2023-01-30T03:39:45;49.32;40.53;68.72;;
64036;Laerm;50280;49.864;8.638;2023-01-30T03:42:18;52.18;42.70;74.91;;
64036;Laerm;50280;49.864;8.638;2023-01-30T03:44:50;46.63;41.26;63.18;;
64036;Laerm;50280;49.864;8.638;2023-01-30T03:47:23;46.17;41.16;60.23;;
64036;Laerm;50280;49.864;8.638;2023-01-30T03:49:56;52.21;40.91;69.42;;
64036;Laerm;50280;49.864;8.638;2023-01-30T03:52:29;49.46;41.27;68.79;;
64036;Laerm;50280;49.864;8.638;2023-01-30T03:55:02;54.96;41.96;75.30;;
64036;Laerm;50280;49.864;8.638;2023-01-30T03:57:35;45.11;40.33;56.72;;
64036;Laerm;50280;49.864;8.638;2023-01-30T04:00:09;49.18;40.69;66.22;;
64036;Laerm;50280;49.864;8.638;2023-01-30T04:02:42;49.92;41.31;69.68;;
64036;Laerm;50280;49.864;8.638;2023-01-30T04:05:17;48.39;40.69;68.16;;
64036;Laerm;50280;49.864;8.638;2023-01-30T04:07:49;48.29;42.24;68.14;;
64036;Laerm;50280;49.864;8.638;2023-01-30T04:10:22;51.69;41.94;75.74;;
64036;Laerm;50280;49.864;8.638;2023-01-30T04:12:55;51.56;44.43;69.70;;
64036;Laerm;50280;49.864;8.638;2023-01-30T04:15:28;54.49;42.95;74.04;;
64036;Laerm;50280;49.864;8.638;2023-01-30T04:18:00;56.23;43.47;75.98;;
64036;Laerm;50280;49.864;8.638;2023-01-30T04:20:34;51.71;42.27;72.69;;
64036;Laerm;50280;49.864;8.638;2023-01-30T04:23:07;57.61;43.63;78.82;;
64036;Laerm;50280;49.864;8.638;2023-01-30T04:25:39;55.39;44.57;77.03;;
64036;Laerm;50280;49.864;8.638;2023-01-30T04:28:12;50.60;44.56;68.44;;
64036;Laerm;50280;49.864;8.638;2023-01-30T04:30:44;49.45;44.25;66.09;;
64036;Laerm;50280;49.864;8.638;2023-01-30T04:33:17;49.65;44.29;68.52;;
64036;Laerm;50280;49.864;8.638;2023-01-30T04:35:56;51.41;45.03;68.30;;
64036;Laerm;50280;49.864;8.638;2023-01-30T04:38:31;55.16;44.68;80.29;;
64036;Laerm;50280;49.864;8.638;2023-01-30T04:41:04;55.25;45.03;72.12;;
64036;Laerm;50280;49.864;8.638;2023-01-30T04:43:37;53.32;45.25;71.56;;
64036;Laerm;50280;49.864;8.638;2023-01-30T04:46:09;52.98;44.68;70.05;;
64036;Laerm;50280;49.864;8.638;2023-01-30T04:48:42;51.47;45.55;70.00;;
64036;Laerm;50280;49.864;8.638;2023-01-30T04:51:16;53.60;44.52;72.33;;
64036;Laerm;50280;49.864;8.638;2023-01-30T04:53:48;51.43;44.69;70.99;;
64036;Laerm;50280;49.864;8.638;2023-01-30T04:56:21;50.83;45.54;65.12;;
64036;Laerm;50280;49.864;8.638;2023-01-30T04:58:53;52.39;45.90;70.41;;
64036;Laerm;50280;49.864;8.638;2023-01-30T05:01:31;50.04;45.81;63.48;;
64036;Laerm;50280;49.864;8.638;2023-01-30T05:04:06;58.12;45.79;82.67;;
64036;Laerm;50280;49.864;8.638;2023-01-30T05:06:40;57.32;45.30;76.10;;
64036;Laerm;50280;49.864;8.638;2023-01-30T05:09:13;61.16;45.26;84.83;;
64036;Laerm;50280;49.864;8.638;2023-01-30T05:11:46;59.11;46.09;82.74;;
64036;Laerm;50280;49.864;8.638;2023-01-30T05:14:18;54.64;46.23;72.31;;
64036;Laerm;50280;49.864;8.638;2023-01-30T05:16:51;52.26;45.60;70.49;;
64036;Laerm;50280;49.864;8.638;2023-01-30T05:19:23;51.86;45.71;70.27;;
64036;Laerm;50280;49.864;8.638;2023-01-30T05:21:57;52.94;45.72;69.68;;
64036;Laerm;50280;49.864;8.638;2023-01-30T05:24:30;54.18;46.13;72.76;;
64036;Laerm;50280;49.864;8.638;2023-01-30T05:27:03;55.47;46.20;73.27;;
64036;Laerm;50280;49.864;8.638;2023-01-30T05:29:35;55.56;46.49;82.72;;
64036;Laerm;50280;49.864;8.638;2023-01-30T05:32:11;53.91;47.00;71.55;;
64036;Laerm;50280;49.864;8.638;2023-01-30T05:34:47;53.71;46.44;72.08;;
64036;Laerm;50280;49.864;8.638;2023-01-30T05:37:21;53.61;45.19;71.97;;
64036;Laerm;50280;49.864;8.638;2023-01-30T05:39:53;50.80;46.39;63.71;;
64036;Laerm;50280;49.864;8.638;2023-01-30T05:42:26;54.26;46.70;77.33;;
64036;Laerm;50280;49.864;8.638;2023-01-30T05:44:58;52.29;46.13;69.76;;
64036;Laerm;50280;49.864;8.638;2023-01-30T05:47:31;51.30;46.95;70.29;;
64036;Laerm;50280;49.864;8.638;2023-01-30T05:50:04;51.67;46.36;70.27;;
64036;Laerm;50280;49.864;8.638;2023-01-30T05:52:38;52.51;46.22;75.51;;
64036;Laerm;50280;49.864;8.638;2023-01-30T05:55:11;52.57;47.38;72.49;;
64036;Laerm;50280;49.864;8.638;2023-01-30T05:57:43;52.24;47.32;69.39;;
64036;Laerm;50280;49.864;8.638;2023-01-30T06:00:19;57.16;46.61;76.04;;
64036;Laerm;50280;49.864;8.638;2023-01-30T06:02:52;57.87;47.19;82.25;;
64036;Laerm;50280;49.864;8.638;2023-01-30T06:05:25;51.87;47.27;70.72;;
64036;Laerm;50280;49.864;8.638;2023-01-30T06:07:59;51.39;46.10;71.27;;
64036;Laerm;50280;49.864;8.638;2023-01-30T06:10:31;53.99;47.28;72.54;;
64036;Laerm;50280;49.864;8.638;2023-01-30T06:13:04;51.92;46.66;71.72;;
64036;Laerm;50280;49.864;8.638;2023-01-30T06:15:37;52.14;47.76;65.53;;
64036;Laerm;50280;49.864;8.638;2023-01-30T06:18:10;51.21;47.51;67.58;;
64036;Laerm;50280;49.864;8.638;2023-01-30T06:20:46;52.58;47.34;74.44;;
64036;Laerm;50280;49.864;8.638;2023-01-30T06:23:20;51.62;46.60;73.57;;
64036;Laerm;50280;49.864;8.638;2023-01-30T06:25:53;51.26;46.66;68.88;;
64036;Laerm;50280;49.864;8.638;2023-01-30T06:28:26;49.73;46.11;61.72;;
64036;Laerm;50280;49.864;8.638;2023-01-30T06:30:59;50.36;46.78;59.02;;
64036;Laerm;50280;49.864;8.638;2023-01-30T06:33:32;51.34;46.75;66.48;;
64036;Laerm;50280;49.864;8.638;2023-01-30T06:36:06;52.76;46.88;69.78;;
64036;Laerm;50280;49.864;8.638;2023-01-30T06:38:40;51.26;46.46;68.83;;
64036;Laerm;50280;49.864;8.638;2023-01-30T06:41:13;51.62;46.93;64.36;;
64036;Laerm;50280;49.864;8.638;2023-01-30T06:43:45;50.24;46.28;66.61;;
64036;Laerm;50280;49.864;8.638;2023-01-30T06:46:18;51.13;47.32;68.64;;
64036;Laerm;50280;49.864;8.638;2023-01-30T06:48:50;51.08;46.90;69.28;;
64036;Laerm;50280;49.864;8.638;2023-01-30T06:51:23;51.95;47.26;65.96;;
64036;Laerm;50280;49.864;8.638;2023-01-30T06:53:57;51.42;46.86;69.77;;
64036;Laerm;50280;49.864;8.638;2023-01-30T06:56:29;52.46;47.04;72.12;;
64036;Laerm;50280;49.864;8.638;2023-01-30T06:59:01;51.17;47.43;68.52;;
64036;Laerm;50280;49.864;8.638;2023-01-30T07:01:34;51.58;47.75;62.98;;
64036;Laerm;50280;49.864;8.638;2023-01-30T07:04:07;51.95;47.34;64.40;;
64036;Laerm;50280;49.864;8.638;2023-01-30T07:06:39;52.25;47.90;64.42;;
64036;Laerm;50280;49.864;8.638;2023-01-30T07:09:13;51.95;47.88;62.56;;
64036;Laerm;50280;49.864;8.638;2023-01-30T07:11:46;54.75;47.00;70.50;;
64036;Laerm;50280;49.864;8.638;2023-01-30T07:14:18;54.81;48.26;71.68;;
64036;Laerm;50280;49.864;8.638;2023-01-30T07:16:51;52.72;46.91;67.47;;
64036;Laerm;50280;49.864;8.638;2023-01-30T07:19:24;52.84;46.77;69.57;;
64036;Laerm;50280;49.864;8.638;2023-01-30T07:21:56;52.51;47.73;68.84;;
64036;Laerm;50280;49.864;8.638;2023-01-30T07:24:30;50.97;47.82;64.20;;
64036;Laerm;50280;49.864;8.638;2023-01-30T07:27:02;54.77;47.11;78.95;;
64036;Laerm;50280;49.864;8.638;2023-01-30T07:29:36;53.81;47.52;72.84;;
64036;Laerm;50280;49.864;8.638;2023-01-30T07:32:14;51.52;47.40;61.34;;
64036;Laerm;50280;49.864;8.638;2023-01-30T07:34:48;52.36;47.37;66.58;;
64036;Laerm;50280;49.864;8.638;2023-01-30T07:37:20;51.32;47.21;65.05;;
64036;Laerm;50280;49.864;8.638;2023-01-30T07:39:54;51.71;47.27;69.74;;
64036;Laerm;50280;49.864;8.638;2023-01-30T07:42:26;50.94;47.31;59.52;;
64036;Laerm;50280;49.864;8.638;2023-01-30T07:44:59;52.51;47.64;70.75;;
64036;Laerm;50280;49.864;8.638;2023-01-30T07:47:31;53.13;47.63;70.55;;
64036;Laerm;50280;49.864;8.638;2023-01-30T07:50:06;50.61;46.99;63.67;;
64036;Laerm;50280;49.864;8.638;2023-01-30T07:52:39;51.41;46.70;65.30;;
64036;Laerm;50280;49.864;8.638;2023-01-30T07:55:13;50.64;46.83;63.78;;
64036;Laerm;50280;49.864;8.638;2023-01-30T07:57:46;55.49;47.40;79.66;;
64036;Laerm;50280;49.864;8.638;2023-01-30T08:00:19;52.68;47.15;71.24;;
64036;Laerm;50280;49.864;8.638;2023-01-30T08:02:51;51.28;45.70;67.64;;
64036;Laerm;50280;49.864;8.638;2023-01-30T08:05:25;51.22;46.47;74.15;;
64036;Laerm;50280;49.864;8.638;2023-01-30T08:07:58;51.06;46.75;67.42;;
64036;Laerm;50280;49.864;8.638;2023-01-30T08:10:31;51.98;46.99;66.14;;
64036;Laerm;50280;49.864;8.638;2023-01-30T08:13:04;50.73;47.24;62.32;;
64036;Laerm;50280;49.864;8.638;2023-01-30T08:15:37;51.54;46.68;65.74;;
64036;Laerm;50280;49.864;8.638;2023-01-30T08:18:09;51.75;47.48;66.72;;
64036;Laerm;50280;49.864;8.638;2023-01-30T08:20:42;52.17;47.12;66.07;;
64036;Laerm;50280;49.864;8.638;2023-01-30T08:23:14;57.71;47.22;83.40;;
64036;Laerm;50280;49.864;8.638;2023-01-30T08:25:48;52.84;46.78;73.88;;
64036;Laerm;50280;49.864;8.638;2023-01-30T08:28:21;55.75;48.39;74.89;;
64036;Laerm;50280;49.864;8.638;2023-01-30T08:30:54;53.01;48.06;67.87;;
64036;Laerm;50280;49.864;8.638;2023-01-30T08:33:27;52.04;46.59;66.29;;
64036;Laerm;50280;49.864;8.638;2023-01-30T08:35:59;52.21;46.63;63.33;;
64036;Laerm;50280;49.864;8.638;2023-01-30T08:38:32;51.61;46.66;65.96;;
64036;Laerm;50280;49.864;8.638;2023-01-30T08:41:06;54.39;47.53;73.80;;
64036;Laerm;50280;49.864;8.638;2023-01-30T08:43:39;54.40;48.16;71.69;;
64036;Laerm;50280;49.864;8.638;2023-01-30T08:46:12;55.45;48.11;72.79;;
64036;Laerm;50280;49.864;8.638;2023-01-30T08:48:44;52.10;46.50;64.61;;
64036;Laerm;50280;49.864;8.638;2023-01-30T08:51:17;55.09;47.62;74.11;;
64036;Laerm;50280;49.864;8.638;2023-01-30T08:53:49;56.68;46.98;80.97;;
64036;Laerm;50280;49.864;8.638;2023-01-30T08:56:23;52.59;47.19;72.76;;
64036;Laerm;50280;49.864;8.638;2023-01-30T08:58:56;50.84;47.31;66.84;;
64036;Laerm;50280;49.864;8.638;2023-01-30T09:01:28;53.12;46.65;74.71;;
64036;Laerm;50280;49.864;8.638;2023-01-30T09:04:01;53.42;47.04;70.35;;
64036;Laerm;50280;49.864;8.638;2023-01-30T09:06:33;51.79;47.64;66.80;;
64036;Laerm;50280;49.864;8.638;2023-01-30T09:09:05;54.38;46.91;79.71;;
64036;Laerm;50280;49.864;8.638;2023-01-30T09:11:39;53.71;46.82;72.86;;
64036;Laerm;50280;49.864;8.638;2023-01-30T09:14:12;54.29;46.97;75.90;;
64036;Laerm;50280;49.864;8.638;2023-01-30T09:16:44;51.28;46.72;62.52;;
64036;Laerm;50280;49.864;8.638;2023-01-30T09:19:17;52.02;46.40;77.51;;
64036;Laerm;50280;49.864;8.638;2023-01-30T09:21:49;50.61;46.93;61.12;;
64036;Laerm;50280;49.864;8.638;2023-01-30T09:24:23;50.82;46.42;64.93;;
64036;Laerm;50280;49.864;8.638;2023-01-30T09:26:57;50.90;46.81;65.83;;
64036;Laerm;50280;49.864;8.638;2023-01-30T09:29:30;53.05;46.60;75.89;;
64036;Laerm;50280;49.864;8.638;2023-01-30T09:32:03;62.58;46.19;84.15;;
64036;Laerm;50280;49.864;8.638;2023-01-30T09:34:35;50.33;46.49;62.84;;
64036;Laerm;50280;49.864;8.638;2023-01-30T09:37:08;52.35;46.60;72.40;;
64036;Laerm;50280;49.864;8.638;2023-01-30T09:39:40;53.60;46.42;72.58;;
64036;Laerm;50280;49.864;8.638;2023-01-30T09:42:59;51.22;46.06;66.50;;
64036;Laerm;50280;49.864;8.638;2023-01-30T09:45:46;53.09;47.19;71.99;;
64036;Laerm;50280;49.864;8.638;2023-01-30T09:48:32;52.74;47.46;73.93;;
64036;Laerm;50280;49.864;8.638;2023-01-30T09:51:38;51.56;47.38;63.25;;
64036;Laerm;50280;49.864;8.638;2023-01-30T09:54:25;53.49;47.61;70.07;;
64036;Laerm;50280;49.864;8.638;2023-01-30T09:57:12;52.15;47.28;68.79;;
64036;Laerm;50280;49.864;8.638;2023-01-30T09:59:58;52.64;46.74;69.04;;
64036;Laerm;50280;49.864;8.638;2023-01-30T10:02:48;51.51;47.04;65.53;;
64036;Laerm;50280;49.864;8.638;2023-01-30T10:05:35;51.58;47.41;63.86;;
64036;Laerm;50280;49.864;8.638;2023-01-30T10:08:32;54.36;47.39;74.16;;
64036;Laerm;50280;49.864;8.638;2023-01-30T10:11:30;51.54;47.21;67.73;;
64036;Laerm;50280;49.864;8.638;2023-01-30T10:14:46;53.35;47.63;70.17;;
64036;Laerm;50280;49.864;8.638;2023-01-30T10:17:51;53.39;47.19;72.60;;
64036;Laerm;50280;49.864;8.638;2023-01-30T10:20:44;51.95;47.33;67.93;;
64036;Laerm;50280;49.864;8.638;2023-01-30T10:24:00;53.65;47.74;72.88;;
64036;Laerm;50280;49.864;8.638;2023-01-30T10:26:47;56.45;46.87;76.40;;
64036;Laerm;50280;49.864;8.638;2023-01-30T10:29:27;56.83;46.16;76.37;;
64036;Laerm;50280;49.864;8.638;2023-01-30T10:32:14;60.98;47.97;79.76;;
64036;Laerm;50280;49.864;8.638;2023-01-30T10:34:56;62.74;48.00;86.35;;
64036;Laerm;50280;49.864;8.638;2023-01-30T10:37:44;56.08;48.12;75.90;;
64036;Laerm;50280;49.864;8.638;2023-01-30T10:40:33;56.26;47.72;80.47;;
64036;Laerm;50280;49.864;8.638;2023-01-30T10:43:21;54.07;46.70;74.10;;
64036;Laerm;50280;49.864;8.638;2023-01-30T10:46:14;56.03;48.36;73.89;;
64036;Laerm;50280;49.864;8.638;2023-01-30T10:49:02;58.37;49.09;79.11;;
64036;Laerm;50280;49.864;8.638;2023-01-30T10:51:50;56.12;48.76;77.62;;
64036;Laerm;50280;49.864;8.638;2023-01-30T10:54:36;56.33;47.72;75.32;;
64036;Laerm;50280;49.864;8.638;2023-01-30T10:57:19;60.96;47.12;83.09;;
64036;Laerm;50280;49.864;8.638;2023-01-30T11:00:03;56.64;46.92;74.77;;
64036;Laerm;50280;49.864;8.638;2023-01-30T11:02:49;51.86;46.55;65.39;;
64036;Laerm;50280;49.864;8.638;2023-01-30T11:05:43;52.93;47.15;67.18;;
64036;Laerm;50280;49.864;8.638;2023-01-30T11:08:24;58.69;47.40;80.95;;
64036;Laerm;50280;49.864;8.638;2023-01-30T11:10:59;54.09;46.84;71.00;;
64036;Laerm;50280;49.864;8.638;2023-01-30T11:13:33;59.79;46.98;84.34;;
64036;Laerm;50280;49.864;8.638;2023-01-30T11:16:07;50.62;46.82;60.02;;
64036;Laerm;50280;49.864;8.638;2023-01-30T11:18:46;51.51;47.47;67.87;;
64036;Laerm;50280;49.864;8.638;2023-01-30T11:21:25;52.30;46.71;69.67;;
64036;Laerm;50280;49.864;8.638;2023-01-30T11:24:12;51.79;46.90;68.47;;
64036;Laerm;50280;49.864;8.638;2023-01-30T11:26:46;53.91;47.75;73.06;;
64036;Laerm;50280;49.864;8.638;2023-01-30T11:29:27;53.20;46.97;70.96;;
64036;Laerm;50280;49.864;8.638;2023-01-30T11:32:04;53.14;47.30;69.29;;
64036;Laerm;50280;49.864;8.638;2023-01-30T11:34:43;53.93;47.27;71.10;;
64036;Laerm;50280;49.864;8.638;2023-01-30T11:37:37;60.29;47.82;76.77;;
64036;Laerm;50280;49.864;8.638;2023-01-30T11:40:24;53.79;45.88;71.90;;
64036;Laerm;50280;49.864;8.638;2023-01-30T11:43:03;52.25;46.66;67.73;;
64036;Laerm;50280;49.864;8.638;2023-01-30T11:45:45;52.35;46.47;66.62;;
64036;Laerm;50280;49.864;8.638;2023-01-30T11:48:27;51.99;47.23;69.30;;
64036;Laerm;50280;49.864;8.638;2023-01-30T11:51:05;50.22;46.00;63.20;;
64036;Laerm;50280;49.864;8.638;2023-01-30T11:53:44;52.63;46.54;68.78;;
64036;Laerm;50280;49.864;8.638;2023-01-30T11:56:29;57.21;46.33;75.10;;
64036;Laerm;50280;49.864;8.638;2023-01-30T11:59:19;49.97;45.30;62.80;;
64036;Laerm;50280;49.864;8.638;2023-01-30T12:02:12;56.82;46.10;73.15;;
64036;Laerm;50280;49.864;8.638;2023-01-30T12:04:56;51.73;46.04;68.82;;
64036;Laerm;50280;49.864;8.638;2023-01-30T12:07:35;58.04;47.55;84.17;;
64036;Laerm;50280;49.864;8.638;2023-01-30T12:10:27;52.54;47.10;69.79;;
64036;Laerm;50280;49.864;8.638;2023-01-30T12:13:10;52.35;47.18;68.52;;
64036;Laerm;50280;49.864;8.638;2023-01-30T12:16:01;52.84;47.18;67.07;;
64036;Laerm;50280;49.864;8.638;2023-01-30T12:18:54;52.24;47.85;70.57;;
64036;Laerm;50280;49.864;8.638;2023-01-30T12:21:45;53.85;47.31;75.86;;
64036;Laerm;50280;49.864;8.638;2023-01-30T12:24:34;51.68;47.15;69.83;;
64036;Laerm;50280;49.864;8.638;2023-01-30T12:27:23;50.60;47.04;60.30;;
64036;Laerm;50280;49.864;8.638;2023-01-30T12:30:04;51.36;46.58;67.17;;
64036;Laerm;50280;49.864;8.638;2023-01-30T12:32:56;50.43;45.81;65.32;;
64036;Laerm;50280;49.864;8.638;2023-01-30T12:35:48;51.70;46.02;65.64;;
64036;Laerm;50280;49.864;8.638;2023-01-30T12:38:47;52.96;46.73;69.63;;
64036;Laerm;50280;49.864;8.638;2023-01-30T12:41:40;50.47;45.93;65.92;;
64036;Laerm;50280;49.864;8.638;2023-01-30T12:44:43;51.42;46.29;67.65;;
64036;Laerm;50280;49.864;8.638;2023-01-30T12:47:48;55.99;46.24;80.10;;
64036;Laerm;50280;49.864;8.638;2023-01-30T12:50:56;53.33;46.34;71.30;;
64036;Laerm;50280;49.864;8.638;2023-01-30T12:53:50;50.98;45.43;70.51;;
64036;Laerm;50280;49.864;8.638;2023-01-30T12:56:52;51.76;45.80;68.64;;
64036;Laerm;50280;49.864;8.638;2023-01-30T12:59:47;51.81;45.93;68.62;;
64036;Laerm;50280;49.864;8.638;2023-01-30T13:02:53;53.63;45.40;71.97;;
64036;Laerm;50280;49.864;8.638;2023-01-30T13:05:58;55.65;46.27;76.29;;
64036;Laerm;50280;49.864;8.638;2023-01-30T13:08:54;53.12;46.00;69.74;;
64036;Laerm;50280;49.864;8.638;2023-01-30T13:11:46;53.43;45.95;75.64;;
64036;Laerm;50280;49.864;8.638;2023-01-30T13:14:35;54.34;46.03;74.89;;
64036;Laerm;50280;49.864;8.638;2023-01-30T13:17:37;54.02;46.38;76.04;;
64036;Laerm;50280;49.864;8.638;2023-01-30T13:20:46;54.06;46.32;75.40;;
64036;Laerm;50280;49.864;8.638;2023-01-30T13:23:39;52.15;46.13;72.44;;
64036;Laerm;50280;49.864;8.638;2023-01-30T13:26:23;53.05;45.24;73.16;;
64036;Laerm;50280;49.864;8.638;2023-01-30T13:29:04;51.29;46.41;66.60;;
64036;Laerm;50280;49.864;8.638;2023-01-30T13:31:52;51.22;46.13;66.06;;
64036;Laerm;50280;49.864;8.638;2023-01-30T13:34:32;51.20;46.03;63.78;;
64036;Laerm;50280;49.864;8.638;2023-01-30T13:37:12;51.44;45.65;72.03;;
64036;Laerm;50280;49.864;8.638;2023-01-30T13:39:49;51.99;45.69;68.90;;
64036;Laerm;50280;49.864;8.638;2023-01-30T13:42:35;52.46;46.39;67.66;;
64036;Laerm;50280;49.864;8.638;2023-01-30T13:45:17;52.17;45.80;66.98;;
64036;Laerm;50280;49.864;8.638;2023-01-30T13:48:05;51.66;45.70;69.58;;
64036;Laerm;50280;49.864;8.638;2023-01-30T13:51:26;53.75;46.95;75.41;;
64036;Laerm;50280;49.864;8.638;2023-01-30T13:54:36;53.15;46.80;73.78;;
64036;Laerm;50280;49.864;8.638;2023-01-30T13:57:32;54.80;46.58;78.58;;
64036;Laerm;50280;49.864;8.638;2023-01-30T14:00:28;55.19;47.54;75.40;;
64036;Laerm;50280;49.864;8.638;2023-01-30T14:03:26;53.71;46.21;73.59;;
64036;Laerm;50280;49.864;8.638;2023-01-30T14:06:07;52.85;46.94;71.79;;
64036;Laerm;50280;49.864;8.638;2023-01-30T14:08:56;52.82;47.16;64.24;;
64036;Laerm;50280;49.864;8.638;2023-01-30T14:11:37;53.32;47.08;72.03;;
64036;Laerm;50280;49.864;8.638;2023-01-30T14:14:28;52.44;47.33;69.33;;
64036;Laerm;50280;49.864;8.638;2023-01-30T14:17:10;53.08;46.82;72.56;;
64036;Laerm;50280;49.864;8.638;2023-01-30T14:20:00;54.65;47.14;74.56;;
64036;Laerm;50280;49.864;8.638;2023-01-30T14:22:48;54.56;48.93;70.16;;
64036;Laerm;50280;49.864;8.638;2023-01-30T14:25:42;51.83;46.92;67.00;;
64036;Laerm;50280;49.864;8.638;2023-01-30T14:28:47;51.69;46.98;63.87;;
64036;Laerm;50280;49.864;8.638;2023-01-30T14:31:49;53.97;47.96;70.80;;
64036;Laerm;50280;49.864;8.638;2023-01-30T14:35:18;51.24;47.28;62.05;;
64036;Laerm;50280;49.864;8.638;2023-01-30T14:38:10;51.27;46.78;62.81;;
64036;Laerm;50280;49.864;8.638;2023-01-30T14:41:22;51.89;47.57;65.45;;
64036;Laerm;50280;49.864;8.638;2023-01-30T14:43:57;52.16;47.00;67.38;;
64036;Laerm;50280;49.864;8.638;2023-01-30T14:46:47;51.69;47.55;59.71;;
64036;Laerm;50280;49.864;8.638;2023-01-30T14:49:31;52.03;47.85;62.94;;
64036;Laerm;50280;49.864;8.638;2023-01-30T14:52:29;52.87;49.39;63.64;;
64036;Laerm;50280;49.864;8.638;2023-01-30T14:55:17;52.56;49.04;63.34;;
64036;Laerm;50280;49.864;8.638;2023-01-30T14:57:57;52.33;48.94;65.85;;
64036;Laerm;50280;49.864;8.638;2023-01-30T15:00:36;51.99;48.73;67.94;;